sensor_id;sensor_type;location;lat;lon;timestamp;P1;durP1;ratioP1;P2;durP2;ratioP2
57463;SDS011;43309;44.418;26.122;2023-08-08T00:00:18;2.10;;;1.50;;
57463;SDS011;43309;44.418;26.122;2023-08-08T00:03:05;1.90;;;1.50;;
57463;SDS011;43309;44.418;26.122;2023-08-08T00:05:36;1.30;;;1.20;;
57463;SDS011;43309;44.418;26.122;2023-08-08T00:08:03;3.00;;;1.50;;
57463;SDS011;43309;44.418;26.122;2023-08-08T00:10:31;3.10;;;1.50;;
57463;SDS011;43309;44.418;26.122;2023-08-08T00:12:58;1.90;;;1.30;;
57463;SDS011;43309;44.418;26.122;2023-08-08T00:15:28;2.90;;;1.40;;
57463;SDS011;43309;44.418;26.122;2023-08-08T00:17:55;2.40;;;1.20;;
57463;SDS011;43309;44.418;26.122;2023-08-08T00:20:23;2.00;;;1.60;;
57463;SDS011;43309;44.418;26.122;2023-08-08T00:22:50;1.70;;;1.30;;
57463;SDS011;43309;44.418;26.122;2023-08-08T00:25:18;1.30;;;1.20;;
57463;SDS011;43309;44.418;26.122;2023-08-08T00:27:49;4.50;;;1.60;;
57463;SDS011;43309;44.418;26.122;2023-08-08T00:30:17;3.90;;;1.40;;
57463;SDS011;43309;44.418;26.122;2023-08-08T00:32:47;2.20;;;1.30;;
57463;SDS011;43309;44.418;26.122;2023-08-08T00:35:15;1.90;;;1.50;;
57463;SDS011;43309;44.418;26.122;2023-08-08T00:37:42;1.50;;;1.20;;
57463;SDS011;43309;44.418;26.122;2023-08-08T00:40:12;2.30;;;1.20;;
57463;SDS011;43309;44.418;26.122;2023-08-08T00:42:40;1.90;;;1.30;;
57463;SDS011;43309;44.418;26.122;2023-08-08T00:45:08;2.60;;;1.50;;
57463;SDS011;43309;44.418;26.122;2023-08-08T00:47:35;2.50;;;1.40;;
57463;SDS011;43309;44.418;26.122;2023-08-08T00:50:03;1.40;;;1.30;;
57463;SDS011;43309;44.418;26.122;2023-08-08T00:52:31;2.20;;;1.30;;
57463;SDS011;43309;44.418;26.122;2023-08-08T00:54:58;2.40;;;1.60;;
57463;SDS011;43309;44.418;26.122;2023-08-08T00:57:30;2.40;;;1.40;;
57463;SDS011;43309;44.418;26.122;2023-08-08T00:59:58;3.20;;;1.40;;
57463;SDS011;43309;44.418;26.122;2023-08-08T01:02:26;1.70;;;1.20;;
57463;SDS011;43309;44.418;26.122;2023-08-08T01:04:53;3.90;;;1.80;;
57463;SDS011;43309;44.418;26.122;2023-08-08T01:07:30;1.70;;;1.50;;
57463;SDS011;43309;44.418;26.122;2023-08-08T01:12:41;1.60;;;1.50;;
57463;SDS011;43309;44.418;26.122;2023-08-08T01:15:10;1.90;;;1.40;;
57463;SDS011;43309;44.418;26.122;2023-08-08T01:17:38;2.80;;;1.60;;
57463;SDS011;43309;44.418;26.122;2023-08-08T01:20:07;1.80;;;1.50;;
57463;SDS011;43309;44.418;26.122;2023-08-08T01:22:36;2.30;;;1.50;;
57463;SDS011;43309;44.418;26.122;2023-08-08T01:25:07;1.80;;;1.40;;
57463;SDS011;43309;44.418;26.122;2023-08-08T01:27:36;2.50;;;1.80;;
57463;SDS011;43309;44.418;26.122;2023-08-08T01:30:03;1.70;;;1.60;;
57463;SDS011;43309;44.418;26.122;2023-08-08T01:32:31;3.80;;;1.50;;
57463;SDS011;43309;44.418;26.122;2023-08-08T01:34:58;2.70;;;1.90;;
57463;SDS011;43309;44.418;26.122;2023-08-08T01:37:29;1.70;;;1.60;;
57463;SDS011;43309;44.418;26.122;2023-08-08T01:39:59;1.90;;;1.50;;
57463;SDS011;43309;44.418;26.122;2023-08-08T01:42:27;1.70;;;1.30;;
57463;SDS011;43309;44.418;26.122;2023-08-08T01:44:55;3.20;;;1.50;;
57463;SDS011;43309;44.418;26.122;2023-08-08T01:47:24;1.50;;;1.40;;
57463;SDS011;43309;44.418;26.122;2023-08-08T01:49:51;4.60;;;1.60;;
57463;SDS011;43309;44.418;26.122;2023-08-08T01:52:19;2.40;;;1.70;;
57463;SDS011;43309;44.418;26.122;2023-08-08T01:54:47;1.70;;;1.40;;
57463;SDS011;43309;44.418;26.122;2023-08-08T01:57:18;1.60;;;1.50;;
57463;SDS011;43309;44.418;26.122;2023-08-08T01:59:45;2.60;;;1.20;;
57463;SDS011;43309;44.418;26.122;2023-08-08T02:02:12;1.90;;;1.30;;
57463;SDS011;43309;44.418;26.122;2023-08-08T02:04:45;1.40;;;1.30;;
57463;SDS011;43309;44.418;26.122;2023-08-08T02:07:12;1.70;;;1.30;;
57463;SDS011;43309;44.418;26.122;2023-08-08T02:09:39;1.30;;;1.20;;
57463;SDS011;43309;44.418;26.122;2023-08-08T02:12:10;1.60;;;1.20;;
57463;SDS011;43309;44.418;26.122;2023-08-08T02:14:37;2.20;;;1.30;;
57463;SDS011;43309;44.418;26.122;2023-08-08T02:17:04;1.60;;;1.20;;
57463;SDS011;43309;44.418;26.122;2023-08-08T02:19:32;1.10;;;1.00;;
57463;SDS011;43309;44.418;26.122;2023-08-08T02:21:59;4.70;;;1.30;;
57463;SDS011;43309;44.418;26.122;2023-08-08T02:24:26;1.20;;;1.10;;
57463;SDS011;43309;44.418;26.122;2023-08-08T02:26:54;1.20;;;1.10;;
57463;SDS011;43309;44.418;26.122;2023-08-08T02:29:21;2.70;;;1.30;;
57463;SDS011;43309;44.418;26.122;2023-08-08T02:31:48;2.20;;;1.20;;
57463;SDS011;43309;44.418;26.122;2023-08-08T02:34:16;1.10;;;1.00;;
57463;SDS011;43309;44.418;26.122;2023-08-08T02:36:43;1.10;;;1.00;;
57463;SDS011;43309;44.418;26.122;2023-08-08T02:39:11;1.40;;;1.20;;
57463;SDS011;43309;44.418;26.122;2023-08-08T02:41:38;2.10;;;1.10;;
57463;SDS011;43309;44.418;26.122;2023-08-08T02:44:08;1.30;;;1.00;;
57463;SDS011;43309;44.418;26.122;2023-08-08T02:46:36;1.50;;;0.90;;
57463;SDS011;43309;44.418;26.122;2023-08-08T02:49:04;1.20;;;1.10;;
57463;SDS011;43309;44.418;26.122;2023-08-08T02:51:32;1.30;;;1.00;;
57463;SDS011;43309;44.418;26.122;2023-08-08T02:53:59;2.20;;;0.70;;
57463;SDS011;43309;44.418;26.122;2023-08-08T02:56:26;2.20;;;1.10;;
57463;SDS011;43309;44.418;26.122;2023-08-08T02:58:55;1.90;;;1.00;;
57463;SDS011;43309;44.418;26.122;2023-08-08T03:01:23;0.80;;;0.80;;
57463;SDS011;43309;44.418;26.122;2023-08-08T03:03:50;1.60;;;1.10;;
57463;SDS011;43309;44.418;26.122;2023-08-08T03:06:21;1.00;;;0.90;;
57463;SDS011;43309;44.418;26.122;2023-08-08T03:08:52;2.80;;;1.00;;
57463;SDS011;43309;44.418;26.122;2023-08-08T03:11:19;2.60;;;1.20;;
57463;SDS011;43309;44.418;26.122;2023-08-08T03:13:47;1.20;;;0.90;;
57463;SDS011;43309;44.418;26.122;2023-08-08T03:16:15;1.40;;;0.90;;
57463;SDS011;43309;44.418;26.122;2023-08-08T03:18:43;1.70;;;1.00;;
57463;SDS011;43309;44.418;26.122;2023-08-08T03:21:12;0.80;;;0.80;;
57463;SDS011;43309;44.418;26.122;2023-08-08T03:23:39;2.10;;;1.00;;
57463;SDS011;43309;44.418;26.122;2023-08-08T03:26:07;1.00;;;0.90;;
57463;SDS011;43309;44.418;26.122;2023-08-08T03:28:34;1.00;;;0.90;;
57463;SDS011;43309;44.418;26.122;2023-08-08T03:31:02;0.80;;;0.80;;
57463;SDS011;43309;44.418;26.122;2023-08-08T03:33:30;1.10;;;0.80;;
57463;SDS011;43309;44.418;26.122;2023-08-08T03:35:57;1.70;;;0.90;;
57463;SDS011;43309;44.418;26.122;2023-08-08T03:38:25;2.00;;;0.90;;
57463;SDS011;43309;44.418;26.122;2023-08-08T03:40:52;2.80;;;1.00;;
57463;SDS011;43309;44.418;26.122;2023-08-08T03:43:25;2.20;;;0.90;;
57463;SDS011;43309;44.418;26.122;2023-08-08T03:45:54;1.70;;;0.90;;
57463;SDS011;43309;44.418;26.122;2023-08-08T03:48:21;0.80;;;0.80;;
57463;SDS011;43309;44.418;26.122;2023-08-08T03:50:53;1.00;;;1.00;;
57463;SDS011;43309;44.418;26.122;2023-08-08T03:53:21;2.20;;;0.80;;
57463;SDS011;43309;44.418;26.122;2023-08-08T03:55:48;1.10;;;1.00;;
57463;SDS011;43309;44.418;26.122;2023-08-08T03:58:16;0.90;;;0.90;;
57463;SDS011;43309;44.418;26.122;2023-08-08T04:00:44;1.40;;;0.90;;
57463;SDS011;43309;44.418;26.122;2023-08-08T04:03:18;3.70;;;1.00;;
57463;SDS011;43309;44.418;26.122;2023-08-08T04:05:48;1.50;;;1.00;;
57463;SDS011;43309;44.418;26.122;2023-08-08T04:08:17;1.20;;;1.10;;
57463;SDS011;43309;44.418;26.122;2023-08-08T04:10:46;1.40;;;0.90;;
57463;SDS011;43309;44.418;26.122;2023-08-08T04:13:14;1.00;;;1.00;;
57463;SDS011;43309;44.418;26.122;2023-08-08T04:15:42;0.90;;;0.90;;
57463;SDS011;43309;44.418;26.122;2023-08-08T04:18:09;1.90;;;1.20;;
57463;SDS011;43309;44.418;26.122;2023-08-08T04:20:36;1.20;;;1.00;;
57463;SDS011;43309;44.418;26.122;2023-08-08T04:23:04;0.90;;;0.90;;
57463;SDS011;43309;44.418;26.122;2023-08-08T04:25:34;0.90;;;0.80;;
57463;SDS011;43309;44.418;26.122;2023-08-08T04:28:03;0.70;;;0.70;;
57463;SDS011;43309;44.418;26.122;2023-08-08T04:30:31;1.50;;;1.10;;
57463;SDS011;43309;44.418;26.122;2023-08-08T04:32:58;0.90;;;0.90;;
57463;SDS011;43309;44.418;26.122;2023-08-08T04:35:28;2.50;;;1.10;;
57463;SDS011;43309;44.418;26.122;2023-08-08T04:37:58;2.00;;;1.00;;
57463;SDS011;43309;44.418;26.122;2023-08-08T04:40:25;2.10;;;1.20;;
57463;SDS011;43309;44.418;26.122;2023-08-08T04:42:52;1.30;;;1.10;;
57463;SDS011;43309;44.418;26.122;2023-08-08T04:45:20;2.20;;;1.20;;
57463;SDS011;43309;44.418;26.122;2023-08-08T04:47:47;2.60;;;1.20;;
57463;SDS011;43309;44.418;26.122;2023-08-08T04:50:15;1.90;;;1.50;;
57463;SDS011;43309;44.418;26.122;2023-08-08T04:52:42;2.50;;;1.20;;
57463;SDS011;43309;44.418;26.122;2023-08-08T04:55:10;2.80;;;1.30;;
57463;SDS011;43309;44.418;26.122;2023-08-08T04:57:37;2.90;;;1.30;;
57463;SDS011;43309;44.418;26.122;2023-08-08T05:00:05;2.00;;;1.20;;
57463;SDS011;43309;44.418;26.122;2023-08-08T05:02:35;1.50;;;1.40;;
57463;SDS011;43309;44.418;26.122;2023-08-08T05:05:03;1.30;;;1.20;;
57463;SDS011;43309;44.418;26.122;2023-08-08T05:07:34;1.40;;;1.20;;
57463;SDS011;43309;44.418;26.122;2023-08-08T05:10:04;1.60;;;1.50;;
57463;SDS011;43309;44.418;26.122;2023-08-08T05:12:32;1.80;;;1.40;;
57463;SDS011;43309;44.418;26.122;2023-08-08T05:14:59;1.70;;;1.60;;
57463;SDS011;43309;44.418;26.122;2023-08-08T05:17:27;3.50;;;1.70;;
57463;SDS011;43309;44.418;26.122;2023-08-08T05:19:57;1.60;;;1.50;;
57463;SDS011;43309;44.418;26.122;2023-08-08T05:22:24;3.30;;;1.70;;
57463;SDS011;43309;44.418;26.122;2023-08-08T05:24:51;1.70;;;1.60;;
57463;SDS011;43309;44.418;26.122;2023-08-08T05:27:19;1.70;;;1.60;;
57463;SDS011;43309;44.418;26.122;2023-08-08T05:29:46;1.60;;;1.50;;
57463;SDS011;43309;44.418;26.122;2023-08-08T05:32:14;5.60;;;1.60;;
57463;SDS011;43309;44.418;26.122;2023-08-08T05:34:41;1.80;;;1.70;;
57463;SDS011;43309;44.418;26.122;2023-08-08T05:37:09;3.80;;;1.80;;
57463;SDS011;43309;44.418;26.122;2023-08-08T05:39:36;15.50;;;4.60;;
57463;SDS011;43309;44.418;26.122;2023-08-08T05:42:03;46.60;;;17.50;;
57463;SDS011;43309;44.418;26.122;2023-08-08T05:44:34;100.70;;;40.20;;
57463;SDS011;43309;44.418;26.122;2023-08-08T05:47:01;147.80;;;71.10;;
57463;SDS011;43309;44.418;26.122;2023-08-08T05:49:29;178.40;;;89.50;;
57463;SDS011;43309;44.418;26.122;2023-08-08T05:51:56;220.60;;;119.80;;
57463;SDS011;43309;44.418;26.122;2023-08-08T05:54:24;198.90;;;97.00;;
57463;SDS011;43309;44.418;26.122;2023-08-08T05:56:51;196.50;;;74.30;;
57463;SDS011;43309;44.418;26.122;2023-08-08T05:59:21;158.60;;;63.80;;
57463;SDS011;43309;44.418;26.122;2023-08-08T06:01:48;141.90;;;51.60;;
57463;SDS011;43309;44.418;26.122;2023-08-08T06:04:15;153.30;;;42.50;;
57463;SDS011;43309;44.418;26.122;2023-08-08T06:06:43;242.30;;;40.70;;
57463;SDS011;43309;44.418;26.122;2023-08-08T06:09:12;241.00;;;34.90;;
57463;SDS011;43309;44.418;26.122;2023-08-08T06:11:39;321.70;;;34.80;;
57463;SDS011;43309;44.418;26.122;2023-08-08T06:14:06;593.30;;;48.40;;
57463;SDS011;43309;44.418;26.122;2023-08-08T06:16:34;730.40;;;53.10;;
57463;SDS011;43309;44.418;26.122;2023-08-08T06:19:01;581.90;;;40.20;;
57463;SDS011;43309;44.418;26.122;2023-08-08T06:21:29;444.90;;;46.70;;
57463;SDS011;43309;44.418;26.122;2023-08-08T06:23:56;393.00;;;38.00;;
57463;SDS011;43309;44.418;26.122;2023-08-08T06:26:25;420.20;;;46.00;;
57463;SDS011;43309;44.418;26.122;2023-08-08T06:28:52;341.90;;;37.10;;
57463;SDS011;43309;44.418;26.122;2023-08-08T06:31:20;259.30;;;30.00;;
57463;SDS011;43309;44.418;26.122;2023-08-08T06:33:47;386.90;;;41.80;;
57463;SDS011;43309;44.418;26.122;2023-08-08T06:36:15;613.40;;;92.50;;
57463;SDS011;43309;44.418;26.122;2023-08-08T06:38:42;842.80;;;130.90;;
57463;SDS011;43309;44.418;26.122;2023-08-08T06:41:09;1001.50;;;158.20;;
57463;SDS011;43309;44.418;26.122;2023-08-08T06:43:37;1060.00;;;166.20;;
57463;SDS011;43309;44.418;26.122;2023-08-08T06:46:05;1022.40;;;158.80;;
57463;SDS011;43309;44.418;26.122;2023-08-08T06:48:32;1108.40;;;172.10;;
57463;SDS011;43309;44.418;26.122;2023-08-08T06:51:02;1113.10;;;162.90;;
57463;SDS011;43309;44.418;26.122;2023-08-08T06:53:30;1107.50;;;157.30;;
57463;SDS011;43309;44.418;26.122;2023-08-08T06:56:00;979.50;;;139.50;;
57463;SDS011;43309;44.418;26.122;2023-08-08T06:58:27;858.80;;;121.90;;
57463;SDS011;43309;44.418;26.122;2023-08-08T07:00:55;728.90;;;112.80;;
57463;SDS011;43309;44.418;26.122;2023-08-08T07:03:25;736.40;;;117.70;;
57463;SDS011;43309;44.418;26.122;2023-08-08T07:05:53;699.90;;;110.00;;
57463;SDS011;43309;44.418;26.122;2023-08-08T07:08:20;680.00;;;101.60;;
57463;SDS011;43309;44.418;26.122;2023-08-08T07:10:48;593.40;;;80.80;;
57463;SDS011;43309;44.418;26.122;2023-08-08T07:13:16;505.30;;;66.00;;
57463;SDS011;43309;44.418;26.122;2023-08-08T07:15:43;427.20;;;59.00;;
57463;SDS011;43309;44.418;26.122;2023-08-08T07:18:11;440.80;;;53.00;;
57463;SDS011;43309;44.418;26.122;2023-08-08T07:20:40;316.10;;;41.50;;
57463;SDS011;43309;44.418;26.122;2023-08-08T07:23:08;276.70;;;38.40;;
57463;SDS011;43309;44.418;26.122;2023-08-08T07:25:35;289.60;;;41.80;;
57463;SDS011;43309;44.418;26.122;2023-08-08T07:28:04;314.20;;;60.20;;
57463;SDS011;43309;44.418;26.122;2023-08-08T07:30:31;251.50;;;44.20;;
57463;SDS011;43309;44.418;26.122;2023-08-08T07:32:59;218.10;;;32.60;;
57463;SDS011;43309;44.418;26.122;2023-08-08T07:35:26;124.30;;;22.10;;
57463;SDS011;43309;44.418;26.122;2023-08-08T07:37:54;83.10;;;18.00;;
57463;SDS011;43309;44.418;26.122;2023-08-08T07:40:21;95.00;;;29.20;;
57463;SDS011;43309;44.418;26.122;2023-08-08T07:42:49;176.30;;;31.70;;
57463;SDS011;43309;44.418;26.122;2023-08-08T07:45:18;104.90;;;34.00;;
57463;SDS011;43309;44.418;26.122;2023-08-08T07:47:45;71.60;;;27.40;;
57463;SDS011;43309;44.418;26.122;2023-08-08T07:50:13;78.10;;;19.50;;
57463;SDS011;43309;44.418;26.122;2023-08-08T07:52:41;97.30;;;15.20;;
57463;SDS011;43309;44.418;26.122;2023-08-08T07:55:10;101.00;;;13.70;;
57463;SDS011;43309;44.418;26.122;2023-08-08T07:57:37;57.90;;;9.50;;
57463;SDS011;43309;44.418;26.122;2023-08-08T08:00:05;66.80;;;11.50;;
57463;SDS011;43309;44.418;26.122;2023-08-08T08:02:41;74.00;;;30.60;;
57463;SDS011;43309;44.418;26.122;2023-08-08T08:05:09;89.10;;;27.60;;
57463;SDS011;43309;44.418;26.122;2023-08-08T08:07:37;62.90;;;17.70;;
57463;SDS011;43309;44.418;26.122;2023-08-08T08:10:17;57.80;;;12.60;;
57463;SDS011;43309;44.418;26.122;2023-08-08T08:12:47;33.90;;;9.20;;
57463;SDS011;43309;44.418;26.122;2023-08-08T08:15:20;24.00;;;7.10;;
57463;SDS011;43309;44.418;26.122;2023-08-08T08:17:51;23.80;;;6.30;;
57463;SDS011;43309;44.418;26.122;2023-08-08T08:20:18;26.50;;;6.60;;
57463;SDS011;43309;44.418;26.122;2023-08-08T08:22:48;63.30;;;8.30;;
57463;SDS011;43309;44.418;26.122;2023-08-08T08:25:15;57.00;;;23.30;;
57463;SDS011;43309;44.418;26.122;2023-08-08T08:27:51;82.40;;;47.20;;
57463;SDS011;43309;44.418;26.122;2023-08-08T08:30:19;92.50;;;47.80;;
57463;SDS011;43309;44.418;26.122;2023-08-08T08:32:49;76.60;;;33.40;;
57463;SDS011;43309;44.418;26.122;2023-08-08T08:35:17;210.00;;;33.50;;
57463;SDS011;43309;44.418;26.122;2023-08-08T08:37:44;201.40;;;29.20;;
57463;SDS011;43309;44.418;26.122;2023-08-08T08:40:14;407.50;;;38.30;;
57463;SDS011;43309;44.418;26.122;2023-08-08T08:42:41;326.30;;;30.40;;
57463;SDS011;43309;44.418;26.122;2023-08-08T08:45:09;169.90;;;22.70;;
57463;SDS011;43309;44.418;26.122;2023-08-08T08:47:37;447.20;;;34.50;;
57463;SDS011;43309;44.418;26.122;2023-08-08T08:50:10;490.00;;;76.60;;
57463;SDS011;43309;44.418;26.122;2023-08-08T08:52:38;433.20;;;59.00;;
57463;SDS011;43309;44.418;26.122;2023-08-08T08:57:36;278.00;;;51.90;;
57463;SDS011;43309;44.418;26.122;2023-08-08T09:00:05;280.60;;;50.20;;
57463;SDS011;43309;44.418;26.122;2023-08-08T09:02:33;274.30;;;43.00;;
57463;SDS011;43309;44.418;26.122;2023-08-08T09:05:04;320.20;;;36.80;;
57463;SDS011;43309;44.418;26.122;2023-08-08T09:07:31;232.10;;;27.10;;
57463;SDS011;43309;44.418;26.122;2023-08-08T09:09:59;249.90;;;24.10;;
57463;SDS011;43309;44.418;26.122;2023-08-08T09:12:27;215.50;;;20.20;;
57463;SDS011;43309;44.418;26.122;2023-08-08T09:14:55;217.80;;;18.00;;
57463;SDS011;43309;44.418;26.122;2023-08-08T09:17:26;99.50;;;13.90;;
57463;SDS011;43309;44.418;26.122;2023-08-08T09:19:54;77.10;;;10.70;;
57463;SDS011;43309;44.418;26.122;2023-08-08T09:22:22;52.80;;;10.20;;
57463;SDS011;43309;44.418;26.122;2023-08-08T09:24:50;64.10;;;9.40;;
57463;SDS011;43309;44.418;26.122;2023-08-08T09:27:18;91.00;;;12.00;;
57463;SDS011;43309;44.418;26.122;2023-08-08T09:29:49;88.10;;;10.90;;
57463;SDS011;43309;44.418;26.122;2023-08-08T09:32:17;72.60;;;10.30;;
57463;SDS011;43309;44.418;26.122;2023-08-08T09:34:45;55.00;;;9.80;;
57463;SDS011;43309;44.418;26.122;2023-08-08T09:37:12;71.80;;;32.60;;
57463;SDS011;43309;44.418;26.122;2023-08-08T09:39:41;73.10;;;41.60;;
57463;SDS011;43309;44.418;26.122;2023-08-08T09:42:10;87.70;;;32.50;;
57463;SDS011;43309;44.418;26.122;2023-08-08T09:44:38;93.70;;;26.80;;
57463;SDS011;43309;44.418;26.122;2023-08-08T09:47:06;135.80;;;23.10;;
57463;SDS011;43309;44.418;26.122;2023-08-08T09:49:39;152.60;;;23.60;;
57463;SDS011;43309;44.418;26.122;2023-08-08T09:52:08;107.80;;;27.80;;
57463;SDS011;43309;44.418;26.122;2023-08-08T09:54:35;129.90;;;33.30;;
57463;SDS011;43309;44.418;26.122;2023-08-08T09:57:06;102.80;;;28.80;;
57463;SDS011;43309;44.418;26.122;2023-08-08T09:59:34;78.00;;;20.90;;
57463;SDS011;43309;44.418;26.122;2023-08-08T10:02:04;86.10;;;16.50;;
57463;SDS011;43309;44.418;26.122;2023-08-08T10:04:31;71.40;;;15.40;;
57463;SDS011;43309;44.418;26.122;2023-08-08T10:06:59;71.10;;;13.10;;
57463;SDS011;43309;44.418;26.122;2023-08-08T10:11:57;41.20;;;9.00;;
57463;SDS011;43309;44.418;26.122;2023-08-08T10:14:29;34.80;;;8.10;;
57463;SDS011;43309;44.418;26.122;2023-08-08T10:16:58;45.60;;;8.70;;
57463;SDS011;43309;44.418;26.122;2023-08-08T10:19:29;50.50;;;7.80;;
57463;SDS011;43309;44.418;26.122;2023-08-08T10:21:58;43.30;;;8.10;;
57463;SDS011;43309;44.418;26.122;2023-08-08T10:24:32;33.90;;;5.70;;
57463;SDS011;43309;44.418;26.122;2023-08-08T10:27:00;31.70;;;4.90;;
57463;SDS011;43309;44.418;26.122;2023-08-08T10:29:30;23.20;;;5.00;;
57463;SDS011;43309;44.418;26.122;2023-08-08T10:32:00;14.60;;;3.80;;
57463;SDS011;43309;44.418;26.122;2023-08-08T10:34:39;16.70;;;3.20;;
57463;SDS011;43309;44.418;26.122;2023-08-08T10:37:10;12.60;;;2.70;;
57463;SDS011;43309;44.418;26.122;2023-08-08T10:39:52;9.50;;;2.60;;
57463;SDS011;43309;44.418;26.122;2023-08-08T10:42:28;7.70;;;1.80;;
57463;SDS011;43309;44.418;26.122;2023-08-08T10:44:56;5.20;;;1.80;;
57463;SDS011;43309;44.418;26.122;2023-08-08T10:47:26;6.80;;;1.80;;
57463;SDS011;43309;44.418;26.122;2023-08-08T10:50:04;9.80;;;1.70;;
57463;SDS011;43309;44.418;26.122;2023-08-08T10:57:56;40.30;;;20.70;;
57463;SDS011;43309;44.418;26.122;2023-08-08T11:00:27;45.80;;;17.30;;
57463;SDS011;43309;44.418;26.122;2023-08-08T11:02:58;36.80;;;12.10;;
57463;SDS011;43309;44.418;26.122;2023-08-08T11:05:30;22.10;;;10.50;;
57463;SDS011;43309;44.418;26.122;2023-08-08T11:07:58;33.40;;;14.90;;
57463;SDS011;43309;44.418;26.122;2023-08-08T11:10:27;33.70;;;16.30;;
57463;SDS011;43309;44.418;26.122;2023-08-08T11:13:05;30.30;;;12.80;;
57463;SDS011;43309;44.418;26.122;2023-08-08T11:15:33;28.70;;;14.30;;
57463;SDS011;43309;44.418;26.122;2023-08-08T11:18:01;31.20;;;13.30;;
57463;SDS011;43309;44.418;26.122;2023-08-08T11:20:33;25.90;;;13.80;;
57463;SDS011;43309;44.418;26.122;2023-08-08T11:23:03;26.20;;;18.40;;
57463;SDS011;43309;44.418;26.122;2023-08-08T11:25:39;53.00;;;35.80;;
57463;SDS011;43309;44.418;26.122;2023-08-08T11:28:08;62.40;;;42.30;;
57463;SDS011;43309;44.418;26.122;2023-08-08T11:30:43;47.90;;;34.60;;
57463;SDS011;43309;44.418;26.122;2023-08-08T11:33:16;46.80;;;30.30;;
57463;SDS011;43309;44.418;26.122;2023-08-08T11:35:45;33.10;;;22.90;;
57463;SDS011;43309;44.418;26.122;2023-08-08T11:38:13;27.80;;;17.90;;
57463;SDS011;43309;44.418;26.122;2023-08-08T11:40:44;24.80;;;15.50;;
57463;SDS011;43309;44.418;26.122;2023-08-08T11:43:12;64.80;;;17.90;;
57463;SDS011;43309;44.418;26.122;2023-08-08T11:45:42;29.80;;;14.50;;
57463;SDS011;43309;44.418;26.122;2023-08-08T11:48:13;64.00;;;27.70;;
57463;SDS011;43309;44.418;26.122;2023-08-08T11:50:42;51.90;;;22.50;;
57463;SDS011;43309;44.418;26.122;2023-08-08T11:53:15;45.80;;;17.70;;
57463;SDS011;43309;44.418;26.122;2023-08-08T11:55:43;43.40;;;16.70;;
57463;SDS011;43309;44.418;26.122;2023-08-08T11:58:14;39.60;;;16.60;;
57463;SDS011;43309;44.418;26.122;2023-08-08T12:00:42;43.10;;;16.00;;
57463;SDS011;43309;44.418;26.122;2023-08-08T12:03:12;55.40;;;14.10;;
57463;SDS011;43309;44.418;26.122;2023-08-08T12:05:41;44.80;;;13.40;;
57463;SDS011;43309;44.418;26.122;2023-08-08T12:08:09;35.90;;;12.30;;
57463;SDS011;43309;44.418;26.122;2023-08-08T12:10:37;30.40;;;11.50;;
57463;SDS011;43309;44.418;26.122;2023-08-08T12:13:04;36.20;;;9.70;;
57463;SDS011;43309;44.418;26.122;2023-08-08T12:15:34;31.10;;;9.00;;
57463;SDS011;43309;44.418;26.122;2023-08-08T12:18:03;40.70;;;8.90;;
57463;SDS011;43309;44.418;26.122;2023-08-08T12:20:30;26.90;;;7.80;;
57463;SDS011;43309;44.418;26.122;2023-08-08T12:23:01;23.60;;;9.50;;
57463;SDS011;43309;44.418;26.122;2023-08-08T12:25:28;50.10;;;22.30;;
57463;SDS011;43309;44.418;26.122;2023-08-08T12:27:56;54.90;;;28.30;;
57463;SDS011;43309;44.418;26.122;2023-08-08T12:30:24;58.90;;;32.60;;
57463;SDS011;43309;44.418;26.122;2023-08-08T12:32:53;65.90;;;33.70;;
57463;SDS011;43309;44.418;26.122;2023-08-08T12:35:20;65.00;;;32.80;;
57463;SDS011;43309;44.418;26.122;2023-08-08T12:37:49;66.40;;;32.80;;
57463;SDS011;43309;44.418;26.122;2023-08-08T12:40:16;60.20;;;32.10;;
57463;SDS011;43309;44.418;26.122;2023-08-08T12:42:49;52.40;;;29.00;;
57463;SDS011;43309;44.418;26.122;2023-08-08T12:45:16;51.00;;;26.90;;
57463;SDS011;43309;44.418;26.122;2023-08-08T12:47:46;129.30;;;73.90;;
57463;SDS011;43309;44.418;26.122;2023-08-08T12:50:14;267.00;;;181.70;;
57463;SDS011;43309;44.418;26.122;2023-08-08T12:52:41;198.50;;;132.50;;
57463;SDS011;43309;44.418;26.122;2023-08-08T12:55:12;173.90;;;122.90;;
57463;SDS011;43309;44.418;26.122;2023-08-08T12:57:40;163.30;;;112.70;;
57463;SDS011;43309;44.418;26.122;2023-08-08T13:00:08;160.90;;;108.80;;
57463;SDS011;43309;44.418;26.122;2023-08-08T13:02:37;160.10;;;101.60;;
57463;SDS011;43309;44.418;26.122;2023-08-08T13:05:06;144.60;;;92.80;;
57463;SDS011;43309;44.418;26.122;2023-08-08T13:07:38;140.70;;;89.20;;
57463;SDS011;43309;44.418;26.122;2023-08-08T13:10:05;119.30;;;81.50;;
57463;SDS011;43309;44.418;26.122;2023-08-08T13:12:33;126.00;;;79.70;;
57463;SDS011;43309;44.418;26.122;2023-08-08T13:15:01;103.90;;;70.00;;
57463;SDS011;43309;44.418;26.122;2023-08-08T13:17:31;121.70;;;63.90;;
57463;SDS011;43309;44.418;26.122;2023-08-08T13:19:59;111.20;;;54.80;;
57463;SDS011;43309;44.418;26.122;2023-08-08T13:22:28;108.50;;;51.90;;
57463;SDS011;43309;44.418;26.122;2023-08-08T13:24:55;96.80;;;50.40;;
57463;SDS011;43309;44.418;26.122;2023-08-08T13:27:23;289.20;;;202.60;;
57463;SDS011;43309;44.418;26.122;2023-08-08T13:29:50;202.10;;;116.90;;
57463;SDS011;43309;44.418;26.122;2023-08-08T13:32:17;186.80;;;114.90;;
57463;SDS011;43309;44.418;26.122;2023-08-08T13:34:48;184.90;;;125.60;;
57463;SDS011;43309;44.418;26.122;2023-08-08T13:37:20;199.30;;;132.30;;
57463;SDS011;43309;44.418;26.122;2023-08-08T13:39:47;211.60;;;131.40;;
57463;SDS011;43309;44.418;26.122;2023-08-08T13:42:15;234.80;;;129.20;;
57463;SDS011;43309;44.418;26.122;2023-08-08T13:44:42;219.20;;;110.10;;
57463;SDS011;43309;44.418;26.122;2023-08-08T13:47:12;200.20;;;93.70;;
57463;SDS011;43309;44.418;26.122;2023-08-08T13:49:39;176.70;;;80.60;;
57463;SDS011;43309;44.418;26.122;2023-08-08T13:52:08;176.40;;;74.60;;
57463;SDS011;43309;44.418;26.122;2023-08-08T13:54:35;145.40;;;71.80;;
57463;SDS011;43309;44.418;26.122;2023-08-08T13:57:03;160.10;;;72.80;;
57463;SDS011;43309;44.418;26.122;2023-08-08T13:59:30;167.50;;;70.60;;
57463;SDS011;43309;44.418;26.122;2023-08-08T14:01:58;145.90;;;64.90;;
57463;SDS011;43309;44.418;26.122;2023-08-08T14:04:25;161.80;;;65.40;;
57463;SDS011;43309;44.418;26.122;2023-08-08T14:06:53;123.60;;;63.50;;
57463;SDS011;43309;44.418;26.122;2023-08-08T14:09:20;130.30;;;63.20;;
57463;SDS011;43309;44.418;26.122;2023-08-08T14:11:50;126.30;;;66.60;;
57463;SDS011;43309;44.418;26.122;2023-08-08T14:14:17;117.50;;;64.70;;
57463;SDS011;43309;44.418;26.122;2023-08-08T14:16:49;126.60;;;71.00;;
57463;SDS011;43309;44.418;26.122;2023-08-08T14:19:16;135.90;;;71.10;;
57463;SDS011;43309;44.418;26.122;2023-08-08T14:21:44;120.30;;;66.40;;
57463;SDS011;43309;44.418;26.122;2023-08-08T14:24:14;108.20;;;61.80;;
57463;SDS011;43309;44.418;26.122;2023-08-08T14:26:43;108.50;;;60.20;;
57463;SDS011;43309;44.418;26.122;2023-08-08T14:29:12;118.80;;;58.60;;
57463;SDS011;43309;44.418;26.122;2023-08-08T14:31:40;101.30;;;59.20;;
57463;SDS011;43309;44.418;26.122;2023-08-08T14:34:07;93.10;;;53.10;;